createdAt,value
2018-07-03T00:00:21.177Z,61.08
2018-07-03T00:01:21.645Z,61.11
2018-07-03T00:02:22.116Z,61.19
2018-07-03T00:03:22.790Z,61.30
2018-07-03T00:04:23.062Z,61.39
2018-07-03T00:05:23.531Z,61.24
2018-07-03T00:06:24.005Z,61.38
2018-07-03T00:07:24.476Z,61.35
2018-07-03T00:08:24.949Z,61.41
2018-07-03T00:09:25.420Z,61.38
2018-07-03T00:10:25.891Z,61.46
2018-07-03T00:11:26.365Z,61.43
2018-07-03T00:12:26.832Z,61.54
2018-07-03T00:13:27.305Z,61.60
2018-07-03T00:14:27.774Z,61.74
2018-07-03T00:15:28.245Z,61.65
2018-07-03T00:16:28.718Z,61.65
2018-07-03T00:17:29.187Z,61.71
2018-07-03T00:18:29.659Z,61.67
2018-07-03T00:19:30.130Z,61.61
2018-07-03T00:20:30.602Z,61.73
2018-07-03T00:21:31.073Z,61.75
2018-07-03T00:22:31.547Z,61.49
2018-07-03T00:23:32.016Z,61.87
2018-07-03T00:24:32.492Z,61.86
2018-07-03T00:25:32.960Z,61.83
2018-07-03T00:26:33.431Z,61.89
2018-07-03T00:27:33.903Z,61.68
2018-07-03T00:28:34.377Z,61.56
2018-07-03T00:29:34.849Z,61.74
2018-07-03T00:30:35.321Z,61.68
2018-07-03T00:31:35.796Z,61.73
2018-07-03T00:32:36.268Z,61.76
2018-07-03T00:33:36.747Z,61.62
2018-07-03T00:34:37.215Z,61.79
2018-07-03T00:35:37.689Z,61.70
2018-07-03T00:36:38.164Z,61.81
2018-07-03T00:37:38.636Z,61.67
2018-07-03T00:38:39.111Z,61.49
2018-07-03T00:39:39.583Z,61.52
2018-07-03T00:40:40.061Z,61.63
2018-07-03T00:41:40.535Z,61.60
2018-07-03T00:42:41.011Z,61.83
2018-07-03T00:43:41.482Z,61.77
2018-07-03T00:44:41.960Z,61.80
2018-07-03T00:45:42.437Z,61.65
2018-07-03T00:46:42.911Z,61.80
2018-07-03T00:47:43.390Z,61.85
2018-07-03T00:48:43.860Z,61.94
2018-07-03T00:49:44.336Z,61.85
2018-07-03T00:50:44.813Z,61.94
2018-07-03T00:51:45.285Z,61.96
2018-07-03T00:52:45.761Z,61.96
2018-07-03T00:53:46.236Z,61.99
2018-07-03T00:54:46.714Z,61.61
2018-07-03T00:55:47.189Z,61.90
2018-07-03T00:56:47.663Z,61.84
2018-07-03T00:57:48.137Z,62.13
2018-07-03T00:58:48.612Z,62.16
2018-07-03T00:59:49.087Z,62.15
2018-07-03T01:00:49.560Z,62.27
2018-07-03T01:01:50.037Z,62.32
2018-07-03T01:02:50.511Z,62.23
2018-07-03T01:03:50.984Z,62.29
2018-07-03T01:04:51.459Z,62.35
2018-07-03T01:05:51.937Z,62.54
2018-07-03T01:06:52.407Z,62.51
2018-07-03T01:07:52.881Z,62.48
2018-07-03T01:08:53.356Z,62.31
2018-07-03T01:09:53.827Z,62.31
2018-07-03T01:10:54.302Z,62.45
2018-07-03T01:11:54.775Z,62.42
2018-07-03T01:12:55.269Z,62.39
2018-07-03T01:13:55.729Z,62.33
2018-07-03T01:14:56.194Z,62.21
2018-07-03T01:15:56.667Z,62.21
2018-07-03T01:16:57.138Z,62.44
2018-07-03T01:17:57.662Z,62.44
2018-07-03T01:18:58.086Z,62.44
2018-07-03T01:19:58.557Z,62.49
2018-07-03T01:20:59.029Z,62.58
2018-07-03T01:21:59.501Z,62.57
2018-07-03T01:22:59.973Z,62.57
2018-07-03T01:24:00.446Z,62.54
2018-07-03T01:25:00.918Z,62.51
2018-07-03T01:26:01.389Z,62.60
2018-07-03T01:27:01.868Z,62.60
2018-07-03T01:28:02.332Z,62.68
2018-07-03T01:29:02.806Z,62.79
2018-07-03T01:30:03.275Z,62.93
2018-07-03T01:31:03.748Z,62.96
2018-07-03T01:32:04.216Z,62.76
2018-07-03T01:33:04.727Z,63.02
2018-07-03T01:34:05.160Z,63.01
2018-07-03T01:35:05.632Z,62.98
2018-07-03T01:36:06.118Z,63.04
2018-07-03T01:37:06.573Z,62.92
2018-07-03T01:38:07.046Z,63.15
2018-07-03T01:39:07.517Z,63.23
2018-07-03T01:40:07.992Z,63.17
2018-07-03T01:41:08.459Z,63.17
2018-07-03T01:42:08.930Z,63.31
2018-07-03T01:43:09.403Z,63.31
2018-07-03T01:44:09.874Z,63.36
2018-07-03T01:45:10.346Z,63.45
2018-07-03T01:46:10.828Z,63.45
2018-07-03T01:47:11.291Z,63.39
2018-07-03T01:48:11.761Z,63.47
2018-07-03T01:49:12.235Z,63.50
2018-07-03T01:50:12.709Z,63.58
2018-07-03T01:51:13.183Z,63.67
2018-07-03T01:52:13.651Z,63.64
2018-07-03T01:53:14.125Z,63.44
2018-07-03T01:54:14.600Z,63.63
2018-07-03T01:55:15.072Z,63.69
2018-07-03T01:56:15.607Z,63.72
2018-07-03T01:57:16.020Z,63.66
2018-07-03T01:58:16.498Z,63.71
2018-07-03T01:59:16.970Z,63.74
2018-07-03T02:00:17.444Z,63.63
2018-07-03T02:01:17.920Z,63.65
2018-07-03T02:02:18.398Z,63.63
2018-07-03T02:03:18.872Z,63.62
2018-07-03T02:04:19.345Z,63.71
2018-07-03T02:05:19.820Z,63.68
2018-07-03T02:06:20.295Z,63.73
2018-07-03T02:07:20.771Z,63.70
2018-07-03T02:08:21.244Z,63.64
2018-07-03T02:09:21.721Z,63.79
2018-07-03T02:10:22.196Z,63.78
2018-07-03T02:11:22.670Z,63.67
2018-07-03T02:12:23.149Z,63.73
2018-07-03T02:13:23.621Z,63.78
2018-07-03T02:14:24.094Z,63.78
2018-07-03T02:15:24.571Z,63.83
2018-07-03T02:16:25.046Z,63.84
2018-07-03T02:17:25.519Z,63.78
2018-07-03T02:18:25.995Z,63.80
2018-07-03T02:19:26.470Z,63.83
2018-07-03T02:20:26.944Z,64.03
2018-07-03T02:21:27.418Z,63.86
2018-07-03T02:22:27.892Z,63.94
2018-07-03T02:23:28.368Z,63.91
2018-07-03T02:24:28.840Z,63.97
2018-07-03T02:25:29.313Z,63.91
2018-07-03T02:26:29.792Z,63.96
2018-07-03T02:27:30.262Z,64.10
2018-07-03T02:28:30.735Z,63.96
2018-07-03T02:29:31.222Z,64.07
2018-07-03T02:30:31.682Z,63.96
2018-07-03T02:31:32.156Z,64.13
2018-07-03T02:32:32.627Z,64.15
2018-07-03T02:33:33.103Z,64.18
2018-07-03T02:34:33.575Z,64.29
2018-07-03T02:35:34.050Z,64.35
2018-07-03T02:36:34.520Z,64.63
2018-07-03T02:37:34.989Z,64.40
2018-07-03T02:38:35.463Z,64.54
2018-07-03T02:39:35.939Z,64.45
2018-07-03T02:40:36.405Z,64.59
2018-07-03T02:41:36.879Z,64.71
2018-07-03T02:42:37.354Z,64.70
2018-07-03T02:43:37.823Z,64.76
2018-07-03T02:44:38.293Z,64.81
2018-07-03T02:45:38.764Z,64.90
2018-07-03T02:46:39.239Z,64.95
2018-07-03T02:47:39.711Z,65.03
2018-07-03T02:48:40.179Z,64.89
2018-07-03T02:49:40.670Z,65.00
2018-07-03T02:50:41.122Z,65.03
2018-07-03T02:51:41.592Z,65.06
2018-07-03T02:52:42.062Z,64.97
2018-07-03T02:53:42.534Z,65.02
2018-07-03T02:54:43.004Z,65.11
2018-07-03T02:55:43.479Z,65.36
2018-07-03T02:56:43.948Z,65.22
2018-07-03T02:57:44.423Z,65.27
2018-07-03T02:58:44.891Z,65.33
2018-07-03T02:59:45.365Z,65.32
2018-07-03T03:00:45.884Z,65.35
2018-07-03T03:01:46.306Z,65.35
2018-07-03T03:02:46.778Z,65.46
2018-07-03T03:03:47.251Z,65.46
2018-07-03T03:04:47.726Z,65.48
2018-07-03T03:05:48.203Z,65.51
2018-07-03T03:06:48.669Z,65.48
2018-07-03T03:07:49.141Z,65.59
2018-07-03T03:08:49.614Z,65.70
2018-07-03T03:09:50.089Z,65.64
2018-07-03T03:10:50.560Z,65.73
2018-07-03T03:11:51.035Z,65.81
2018-07-03T03:12:51.507Z,65.87
2018-07-03T03:13:51.984Z,65.95
2018-07-03T03:14:52.457Z,65.84
2018-07-03T03:15:52.938Z,66.09
2018-07-03T03:16:53.404Z,66.09
2018-07-03T03:17:53.880Z,66.03
2018-07-03T03:18:54.357Z,66.00
2018-07-03T03:19:54.830Z,66.00
2018-07-03T03:20:55.310Z,66.00
2018-07-03T03:21:55.780Z,66.08
2018-07-03T03:22:56.258Z,66.08
2018-07-03T03:23:56.733Z,66.49
2018-07-03T03:24:57.207Z,66.19
2018-07-03T03:25:57.680Z,66.41
2018-07-03T03:26:58.157Z,66.30
2018-07-03T03:27:58.630Z,66.49
2018-07-03T03:28:59.112Z,66.68
2018-07-03T03:29:59.586Z,66.46
2018-07-03T03:31:00.058Z,66.41
2018-07-03T03:32:00.531Z,66.57
2018-07-03T03:33:01.005Z,66.51
2018-07-03T03:34:01.482Z,66.29
2018-07-03T03:35:01.956Z,66.45
2018-07-03T03:36:02.432Z,66.54
2018-07-03T03:37:02.908Z,66.56
2018-07-03T03:38:03.378Z,66.53
2018-07-03T03:39:03.854Z,66.56
2018-07-03T03:40:04.327Z,66.61
2018-07-03T03:41:04.798Z,66.72
2018-07-03T03:42:05.275Z,66.83
2018-07-03T03:43:05.746Z,66.78
2018-07-03T03:44:06.222Z,66.91
2018-07-03T03:45:06.693Z,67.00
2018-07-03T03:46:07.167Z,66.91
2018-07-03T03:47:07.641Z,66.99
2018-07-03T03:48:08.115Z,67.08
2018-07-03T03:49:08.587Z,67.05
2018-07-03T03:50:09.057Z,66.96
2018-07-03T03:51:09.530Z,66.99
2018-07-03T03:52:10.005Z,67.04
2018-07-03T03:53:10.476Z,67.04
2018-07-03T03:54:10.947Z,67.04
2018-07-03T03:55:11.420Z,67.18
2018-07-03T03:56:11.892Z,67.20
2018-07-03T03:57:12.424Z,67.20
2018-07-03T03:58:12.836Z,67.25
2018-07-03T03:59:13.383Z,67.14
2018-07-03T04:00:13.783Z,67.36
2018-07-03T04:01:14.248Z,67.33
2018-07-03T04:02:14.741Z,67.30
2018-07-03T04:03:15.190Z,67.36
2018-07-03T04:04:15.664Z,67.28
2018-07-03T04:05:16.136Z,67.38
2018-07-03T04:06:16.606Z,67.44
2018-07-03T04:07:17.076Z,67.46
2018-07-03T04:08:17.546Z,67.43
2018-07-03T04:09:18.018Z,67.54
2018-07-03T04:10:18.490Z,67.46
2018-07-03T04:11:18.961Z,67.59
2018-07-03T04:12:19.433Z,67.95
2018-07-03T04:13:19.905Z,67.95
2018-07-03T04:14:20.376Z,68.03
2018-07-03T04:15:20.848Z,67.86
2018-07-03T04:16:21.319Z,67.95
2018-07-03T04:17:21.791Z,67.86
2018-07-03T04:18:22.263Z,68.30
2018-07-03T04:19:22.737Z,68.11
2018-07-03T04:20:23.211Z,68.11
2018-07-03T04:21:23.680Z,68.27
2018-07-03T04:22:24.154Z,68.10
2018-07-03T04:23:24.628Z,68.13
2018-07-03T04:24:25.101Z,68.21
2018-07-03T04:25:25.573Z,68.16
2018-07-03T04:26:26.049Z,68.40
2018-07-03T04:27:26.525Z,68.29
2018-07-03T04:28:26.997Z,68.26
2018-07-03T04:29:27.469Z,68.23
2018-07-03T04:30:27.944Z,68.32
2018-07-03T04:31:28.419Z,68.48
2018-07-03T04:32:28.894Z,68.34
2018-07-03T04:33:29.369Z,68.37
2018-07-03T04:34:29.844Z,68.31
2018-07-03T04:35:30.318Z,68.36
2018-07-03T04:36:30.793Z,68.37
2018-07-03T04:37:31.268Z,68.34
2018-07-03T04:38:31.742Z,68.31
2018-07-03T04:39:32.218Z,68.50
2018-07-03T04:40:32.695Z,68.44
2018-07-03T04:41:33.168Z,68.42
2018-07-03T04:42:33.642Z,68.45
2018-07-03T04:43:34.118Z,68.55
2018-07-03T04:44:34.593Z,68.55
2018-07-03T04:45:35.116Z,68.47
2018-07-03T04:46:35.541Z,68.52
2018-07-03T04:47:36.018Z,68.52
2018-07-03T04:48:36.493Z,68.49
2018-07-03T04:49:36.963Z,68.44
2018-07-03T04:50:37.439Z,68.41
2018-07-03T04:52:38.385Z,68.60
2018-07-03T04:53:38.859Z,68.52
2018-07-03T04:54:39.333Z,68.54
2018-07-03T04:55:39.820Z,68.54
2018-07-03T04:56:40.280Z,68.63
2018-07-03T04:57:40.751Z,68.71
2018-07-03T04:58:41.225Z,68.70
2018-07-03T04:59:41.700Z,68.46
2018-07-03T05:00:42.171Z,68.51
2018-07-03T05:01:42.643Z,68.59
2018-07-03T05:02:43.121Z,68.57
2018-07-03T05:03:43.589Z,68.68
2018-07-03T05:04:44.062Z,68.68
2018-07-03T05:05:44.536Z,68.65
2018-07-03T05:06:45.005Z,68.65
2018-07-03T05:07:45.476Z,68.62
2018-07-03T05:08:45.951Z,68.62
2018-07-03T05:09:46.418Z,68.65
2018-07-03T05:10:46.895Z,68.67
2018-07-03T05:11:47.362Z,68.76
2018-07-03T05:12:47.833Z,68.78
2018-07-03T05:13:48.304Z,68.81
2018-07-03T05:14:48.776Z,68.75
2018-07-03T05:15:49.247Z,68.73
2018-07-03T05:16:49.719Z,68.67
2018-07-03T05:17:50.189Z,68.78
2018-07-03T05:18:50.661Z,68.73
2018-07-03T05:19:51.133Z,68.78
2018-07-03T05:20:51.605Z,68.73
2018-07-03T05:21:52.077Z,68.73
2018-07-03T05:22:52.545Z,68.73
2018-07-03T05:23:53.020Z,68.81
2018-07-03T05:24:53.491Z,68.67
2018-07-03T05:25:53.960Z,68.75
2018-07-03T05:26:54.433Z,68.73
2018-07-03T05:27:54.906Z,68.81
2018-07-03T05:28:55.379Z,68.70
2018-07-03T05:29:55.852Z,68.91
2018-07-03T05:30:56.322Z,69.13
2018-07-03T05:31:56.797Z,69.29
2018-07-03T05:32:57.275Z,69.19
2018-07-03T05:33:57.743Z,68.97
2018-07-03T05:34:58.214Z,68.94
2018-07-03T05:35:58.689Z,69.00
2018-07-03T05:36:59.163Z,68.80
2018-07-03T05:37:59.636Z,68.86
2018-07-03T05:39:00.111Z,68.91
2018-07-03T05:40:00.586Z,69.07
2018-07-03T05:41:01.061Z,68.99
2018-07-03T05:42:01.536Z,69.07
2018-07-03T05:43:02.010Z,69.05
2018-07-03T05:44:02.485Z,68.96
2018-07-03T05:45:02.961Z,69.07
2018-07-03T05:46:03.433Z,68.94
2018-07-03T05:47:03.909Z,68.99
2018-07-03T05:48:04.385Z,69.02
2018-07-03T05:49:04.860Z,68.99
2018-07-03T05:50:05.334Z,68.91
2018-07-03T05:51:05.811Z,68.93
2018-07-03T05:52:06.285Z,68.88
2018-07-03T05:53:06.764Z,68.82
2018-07-03T05:54:07.233Z,68.85
2018-07-03T05:55:07.711Z,68.91
2018-07-03T05:56:08.186Z,68.85
2018-07-03T05:57:08.660Z,68.77
2018-07-03T05:58:09.136Z,68.77
2018-07-03T05:59:09.608Z,68.82
2018-07-03T06:00:10.083Z,68.88
2018-07-03T06:01:10.608Z,68.90
2018-07-03T06:02:11.033Z,68.93
2018-07-03T06:03:11.504Z,68.98
2018-07-03T06:04:11.982Z,69.12
2018-07-03T06:05:12.506Z,69.12
2018-07-03T06:06:12.926Z,69.04
2018-07-03T06:07:13.401Z,68.93
2018-07-03T06:08:13.872Z,68.90
2018-07-03T06:09:14.391Z,68.79
2018-07-03T06:10:14.820Z,68.82
2018-07-03T06:11:15.292Z,68.74
2018-07-03T06:12:15.765Z,68.71
2018-07-03T06:13:16.237Z,68.71
2018-07-03T06:14:16.715Z,68.84
2018-07-03T06:15:17.181Z,68.79
2018-07-03T06:16:17.656Z,68.84
2018-07-03T06:17:18.127Z,68.82
2018-07-03T06:18:18.597Z,68.92
2018-07-03T06:19:19.072Z,68.90
2018-07-03T06:20:19.542Z,68.92
2018-07-03T06:21:20.013Z,69.00
2018-07-03T06:22:20.484Z,69.00
2018-07-03T06:23:20.956Z,69.03
2018-07-03T06:24:21.427Z,69.01
2018-07-03T06:25:21.900Z,68.95
2018-07-03T06:26:22.426Z,68.92
2018-07-03T06:27:22.843Z,68.95
2018-07-03T06:28:23.314Z,68.92
2018-07-03T06:29:23.783Z,68.90
2018-07-03T06:30:24.254Z,68.90
2018-07-03T06:31:24.727Z,68.93
2018-07-03T06:32:25.198Z,68.96
2018-07-03T06:33:25.671Z,68.93
2018-07-03T06:34:26.141Z,68.85
2018-07-03T06:35:26.612Z,68.88
2018-07-03T06:36:27.134Z,68.79
2018-07-03T06:37:27.588Z,68.93
2018-07-03T06:38:28.079Z,68.90
2018-07-03T06:39:28.502Z,69.07
2018-07-03T06:40:28.972Z,69.23
2018-07-03T06:41:29.446Z,69.12
2018-07-03T06:42:29.917Z,69.12
2018-07-03T06:43:30.389Z,69.02
2018-07-03T06:44:30.864Z,69.13
2018-07-03T06:45:31.336Z,68.99
2018-07-03T06:46:31.820Z,68.94
2018-07-03T06:47:32.282Z,68.88
2018-07-03T06:48:32.759Z,68.91
2018-07-03T06:49:33.230Z,68.94
2018-07-03T06:50:33.706Z,68.88
2018-07-03T06:51:34.228Z,69.05
2018-07-03T06:52:34.653Z,69.08
2018-07-03T06:53:35.128Z,69.59
2018-07-03T06:54:35.604Z,69.51
2018-07-03T06:55:36.078Z,69.67
2018-07-03T06:56:36.566Z,69.65
2018-07-03T06:57:37.026Z,69.51
2018-07-03T06:58:37.503Z,69.56
2018-07-03T06:59:37.976Z,69.75
2018-07-03T07:00:38.453Z,69.64
2018-07-03T07:01:38.932Z,69.53
2018-07-03T07:02:39.404Z,69.56
2018-07-03T07:03:39.878Z,69.45
2018-07-03T07:04:40.352Z,69.43
2018-07-03T07:05:40.828Z,69.40
2018-07-03T07:06:41.304Z,69.34
2018-07-03T07:07:41.776Z,69.26
2018-07-03T07:08:42.351Z,69.27
2018-07-03T07:09:42.753Z,69.24
2018-07-03T07:10:43.201Z,69.29
2018-07-03T07:11:43.678Z,69.40
2018-07-03T07:12:44.151Z,69.41
2018-07-03T07:13:44.624Z,69.40
2018-07-03T07:14:45.100Z,69.48
2018-07-03T07:15:45.576Z,69.43
2018-07-03T07:16:46.047Z,69.41
2018-07-03T07:17:46.521Z,69.30
2018-07-03T07:18:46.992Z,69.32
2018-07-03T07:19:47.467Z,69.22
2018-07-03T07:20:47.941Z,69.11
2018-07-03T07:21:48.465Z,69.17
2018-07-03T07:22:48.887Z,69.08
2018-07-03T07:23:49.364Z,69.17
2018-07-03T07:24:49.833Z,69.25
2018-07-03T07:25:50.306Z,69.25
2018-07-03T07:26:50.779Z,69.25
2018-07-03T07:27:51.253Z,69.09
2018-07-03T07:28:51.722Z,69.09
2018-07-03T07:29:52.196Z,69.01
2018-07-03T07:30:52.666Z,69.01
2018-07-03T07:31:53.141Z,69.10
2018-07-03T07:32:53.614Z,69.15
2018-07-03T07:33:54.089Z,69.10
2018-07-03T07:34:54.552Z,69.07
2018-07-03T07:35:55.037Z,68.94
2018-07-03T07:36:55.496Z,68.94
2018-07-03T07:37:55.969Z,69.00
2018-07-03T07:38:56.439Z,68.94
2018-07-03T07:39:56.912Z,68.87
2018-07-03T07:40:57.385Z,68.76
2018-07-03T07:41:57.855Z,68.95
2018-07-03T07:42:58.327Z,68.95
2018-07-03T07:43:58.798Z,68.82
2018-07-03T07:44:59.268Z,68.80
2018-07-03T07:45:59.742Z,68.74
2018-07-03T07:47:00.215Z,68.86
2018-07-03T07:48:00.700Z,68.64
2018-07-03T07:49:01.157Z,68.62
2018-07-03T07:50:01.627Z,68.65
2018-07-03T07:51:02.098Z,68.65
2018-07-03T07:52:02.573Z,68.47
2018-07-03T07:53:03.045Z,68.55
2018-07-03T07:54:03.517Z,68.42
2018-07-03T07:55:03.991Z,68.23
2018-07-03T07:56:04.466Z,68.15
2018-07-03T07:57:04.939Z,68.13
2018-07-03T07:58:05.408Z,68.19
2018-07-03T07:59:05.882Z,68.14
2018-07-03T08:00:06.377Z,68.03
2018-07-03T08:01:06.832Z,68.03
2018-07-03T08:02:07.307Z,68.14
2018-07-03T08:03:07.780Z,68.09
2018-07-03T08:04:08.254Z,68.15
2018-07-03T08:05:08.729Z,67.88
2018-07-03T08:06:09.206Z,67.90
2018-07-03T08:07:09.679Z,67.83
2018-07-03T08:08:10.155Z,67.88
2018-07-03T08:09:10.629Z,67.97
2018-07-03T08:10:11.104Z,67.83
2018-07-03T08:11:11.582Z,67.72
2018-07-03T08:12:12.055Z,67.67
2018-07-03T08:13:12.537Z,67.65
2018-07-03T08:14:13.008Z,67.62
2018-07-03T08:15:13.481Z,67.54
2018-07-03T08:16:13.958Z,67.47
2018-07-03T08:17:14.434Z,67.41
2018-07-03T08:18:14.908Z,67.44
2018-07-03T08:19:15.412Z,67.39
2018-07-03T08:20:15.858Z,67.31
2018-07-03T08:21:16.333Z,67.34
2018-07-03T08:22:16.859Z,67.29
2018-07-03T08:23:17.284Z,67.24
2018-07-03T08:24:17.759Z,67.24
2018-07-03T08:25:18.231Z,67.19
2018-07-03T08:26:18.707Z,67.16
2018-07-03T08:27:19.184Z,67.14
2018-07-03T08:28:19.657Z,67.03
2018-07-03T08:29:20.131Z,66.95
2018-07-03T08:31:21.081Z,66.93
2018-07-03T08:32:21.561Z,66.93
2018-07-03T08:33:22.027Z,66.90
2018-07-03T08:34:22.498Z,66.91
2018-07-03T08:35:22.972Z,66.94
2018-07-03T08:36:23.445Z,66.89
2018-07-03T08:37:24.123Z,66.89
2018-07-03T08:38:24.394Z,66.76
2018-07-03T08:39:24.864Z,66.73
2018-07-03T08:40:25.339Z,66.68
2018-07-03T08:41:25.812Z,66.71
2018-07-03T08:42:26.289Z,66.74
2018-07-03T08:43:26.756Z,66.63
2018-07-03T08:44:27.231Z,66.61
2018-07-03T08:45:27.705Z,66.56
2018-07-03T08:46:28.177Z,66.51
2018-07-03T08:47:28.646Z,66.54
2018-07-03T08:48:29.137Z,66.51
2018-07-03T08:49:29.596Z,66.49
2018-07-03T08:50:30.064Z,66.55
2018-07-03T08:51:30.534Z,66.72
2018-07-03T08:52:31.007Z,66.56
2018-07-03T08:53:31.479Z,66.40
2018-07-03T08:54:31.951Z,66.38
2018-07-03T08:55:32.423Z,66.30
2018-07-03T08:56:32.893Z,66.23
2018-07-03T08:57:33.366Z,66.09
2018-07-03T08:58:33.837Z,66.04
2018-07-03T08:59:34.309Z,65.99
2018-07-03T09:00:34.779Z,65.94
2018-07-03T09:01:35.250Z,65.98
2018-07-03T09:02:35.724Z,65.93
2018-07-03T09:03:36.195Z,65.88
2018-07-03T09:04:36.668Z,65.77
2018-07-03T09:05:37.141Z,65.70
2018-07-03T09:07:38.085Z,65.83
2018-07-03T09:08:38.559Z,65.58
2018-07-03T09:09:39.030Z,65.45
2018-07-03T09:10:39.503Z,65.43
2018-07-03T09:11:39.980Z,65.22
2018-07-03T09:12:40.448Z,65.11
2018-07-03T09:13:40.921Z,65.04
2018-07-03T09:14:41.396Z,64.93
2018-07-03T09:15:41.869Z,64.83
2018-07-03T09:16:42.343Z,64.72
2018-07-03T09:17:42.819Z,64.67
2018-07-03T09:18:43.292Z,64.59
2018-07-03T09:19:43.769Z,64.49
2018-07-03T09:20:44.243Z,64.44
2018-07-03T09:21:44.719Z,64.44
2018-07-03T09:22:45.196Z,64.39
2018-07-03T09:23:45.872Z,64.34
2018-07-03T09:24:46.160Z,64.27
2018-07-03T09:25:46.625Z,64.22
2018-07-03T09:26:47.098Z,64.17
2018-07-03T09:27:47.572Z,64.09
2018-07-03T09:28:48.049Z,64.06
2018-07-03T09:29:48.523Z,64.07
2018-07-03T09:30:49.002Z,63.99
2018-07-03T09:31:49.477Z,63.96
2018-07-03T09:32:50.005Z,63.91
2018-07-03T09:33:50.632Z,63.91
2018-07-03T09:34:50.906Z,63.92
2018-07-03T09:35:51.380Z,63.89
2018-07-03T09:36:51.856Z,63.95
2018-07-03T09:38:52.811Z,63.90
2018-07-03T09:39:53.284Z,63.90
2018-07-03T09:41:54.235Z,63.99
2018-07-03T09:42:54.712Z,64.07
2018-07-03T09:43:55.184Z,64.22
2018-07-03T09:44:55.663Z,64.31
2018-07-03T09:45:56.137Z,64.36
2018-07-03T09:46:56.616Z,64.28
2018-07-03T09:47:57.135Z,64.28
2018-07-03T09:48:57.561Z,64.45
2018-07-03T09:49:58.038Z,64.79
2018-07-03T09:50:58.509Z,64.90
2018-07-03T09:51:58.984Z,64.76
2018-07-03T09:52:59.459Z,64.76
2018-07-03T09:53:59.932Z,64.96
2018-07-03T09:55:00.438Z,64.93
2018-07-03T09:56:00.879Z,64.96
2018-07-03T09:57:01.355Z,65.16
2018-07-03T09:58:01.879Z,65.24
2018-07-03T09:59:02.304Z,65.24
2018-07-03T10:00:02.776Z,65.24
2018-07-03T10:01:03.246Z,65.35
2018-07-03T10:02:03.721Z,65.32
2018-07-03T10:03:04.196Z,65.32
2018-07-03T10:04:04.669Z,65.35
2018-07-03T10:05:05.140Z,65.43
2018-07-03T10:06:05.619Z,65.40
2018-07-03T10:07:06.087Z,65.49
2018-07-03T10:08:06.559Z,65.51
2018-07-03T10:09:07.033Z,65.54
2018-07-03T10:10:07.503Z,65.51
2018-07-03T10:11:07.977Z,65.54
2018-07-03T10:12:08.451Z,65.54
2018-07-03T10:13:08.925Z,65.54
2018-07-03T10:14:09.393Z,65.51
2018-07-03T10:15:09.866Z,65.63
2018-07-03T10:16:10.340Z,65.57
2018-07-03T10:17:10.813Z,65.51
2018-07-03T10:18:11.281Z,65.54
2018-07-03T10:19:11.754Z,65.54
2018-07-03T10:20:12.227Z,65.60
2018-07-03T10:21:12.698Z,65.60
2018-07-03T10:22:13.170Z,65.59
2018-07-03T10:23:13.690Z,65.73
2018-07-03T10:24:14.111Z,65.71
2018-07-03T10:25:14.584Z,65.90
2018-07-03T10:26:15.053Z,65.76
2018-07-03T10:27:15.526Z,65.84
2018-07-03T10:28:15.997Z,65.92
2018-07-03T10:29:16.468Z,65.95
2018-07-03T10:30:16.940Z,65.90
2018-07-03T10:31:17.458Z,65.95
2018-07-03T10:32:17.882Z,65.98
2018-07-03T10:33:18.353Z,65.98
2018-07-03T10:34:18.825Z,66.03
2018-07-03T10:35:19.296Z,66.14
2018-07-03T10:36:19.770Z,66.19
2018-07-03T10:37:20.241Z,66.19
2018-07-03T10:38:20.714Z,66.19
2018-07-03T10:39:21.186Z,66.33
2018-07-03T10:40:21.656Z,66.33
2018-07-03T10:41:22.131Z,66.55
2018-07-03T10:42:22.603Z,66.61
2018-07-03T10:43:23.126Z,66.60
2018-07-03T10:44:23.548Z,66.69
2018-07-03T10:45:24.023Z,66.80
2018-07-03T10:46:24.496Z,66.82
2018-07-03T10:47:24.969Z,66.87
2018-07-03T10:48:25.496Z,66.96
2018-07-03T10:49:25.919Z,66.93
2018-07-03T10:50:26.391Z,66.98
2018-07-03T10:51:26.867Z,67.01
2018-07-03T10:52:27.346Z,67.08
2018-07-03T10:53:27.815Z,67.17
2018-07-03T10:54:28.293Z,67.11
2018-07-03T10:55:28.768Z,67.22
2018-07-03T10:56:29.242Z,67.27
2018-07-03T10:57:29.721Z,67.24
2018-07-03T10:58:30.193Z,67.27
2018-07-03T10:59:30.674Z,67.27
2018-07-03T11:00:31.142Z,67.29
2018-07-03T11:01:31.617Z,67.24
2018-07-03T11:02:32.096Z,67.23
2018-07-03T11:03:32.571Z,67.31
2018-07-03T11:04:33.045Z,67.29
2018-07-03T11:05:33.571Z,67.31
2018-07-03T11:06:33.995Z,67.28
2018-07-03T11:07:34.471Z,67.22
2018-07-03T11:08:34.945Z,67.16
2018-07-03T11:09:35.420Z,67.16
2018-07-03T11:10:35.896Z,67.10
2018-07-03T11:11:36.371Z,67.02
2018-07-03T11:12:36.846Z,66.94
2018-07-03T11:13:37.320Z,66.93
2018-07-03T11:14:37.799Z,66.90
2018-07-03T11:15:38.270Z,66.85
2018-07-03T11:16:38.755Z,66.76
2018-07-03T11:17:39.220Z,66.73
2018-07-03T11:18:39.745Z,66.73
2018-07-03T11:19:40.297Z,66.76
2018-07-03T11:20:40.643Z,66.64
2018-07-03T11:21:41.116Z,66.64
2018-07-03T11:22:41.590Z,66.61
2018-07-03T11:23:42.064Z,66.55
2018-07-03T11:24:42.535Z,66.52
2018-07-03T11:25:43.010Z,66.49
2018-07-03T11:26:43.484Z,66.51
2018-07-03T11:27:43.957Z,66.40
2018-07-03T11:28:44.429Z,66.31
2018-07-03T11:29:44.904Z,66.31
2018-07-03T11:30:45.375Z,66.25
2018-07-03T11:31:45.850Z,66.05
2018-07-03T11:32:46.327Z,65.97
2018-07-03T11:33:46.900Z,65.77
2018-07-03T11:34:47.266Z,65.60
2018-07-03T11:35:47.941Z,65.37
2018-07-03T11:36:48.211Z,65.31
2018-07-03T11:37:48.793Z,65.31
2018-07-03T11:38:49.160Z,65.28
2018-07-03T11:39:49.626Z,65.25
2018-07-03T11:40:50.108Z,65.19
2018-07-03T11:41:50.573Z,65.01
2018-07-03T11:42:51.049Z,64.92
2018-07-03T11:43:51.515Z,64.78
2018-07-03T11:44:52.048Z,64.53
2018-07-03T11:45:52.456Z,64.43
2018-07-03T11:47:53.407Z,64.29
2018-07-03T11:48:53.871Z,64.37
2018-07-03T11:49:54.341Z,64.40
2018-07-03T11:50:54.812Z,63.71
2018-07-03T11:51:55.283Z,63.77
2018-07-03T11:52:55.756Z,64.05
2018-07-03T11:53:56.226Z,63.93
2018-07-03T11:54:56.701Z,63.50
2018-07-03T11:55:57.169Z,63.59
2018-07-03T11:56:57.638Z,63.61
2018-07-03T11:57:58.108Z,63.61
2018-07-03T11:58:58.635Z,63.24
2018-07-03T11:59:59.054Z,63.69
2018-07-03T12:00:59.523Z,63.41
2018-07-03T12:01:59.996Z,62.78
2018-07-03T12:03:00.468Z,63.12
2018-07-03T12:04:00.940Z,63.48
2018-07-03T12:05:01.411Z,62.63
2018-07-03T12:06:01.888Z,62.34
2018-07-03T12:07:02.390Z,62.59
2018-07-03T12:08:02.831Z,62.93
2018-07-03T12:09:03.300Z,62.90
2018-07-03T12:10:03.774Z,62.96
2018-07-03T12:11:04.248Z,62.93
2018-07-03T12:12:04.725Z,62.98
2018-07-03T12:13:05.200Z,62.98
2018-07-03T12:14:05.668Z,63.00
2018-07-03T12:15:06.145Z,63.00
2018-07-03T12:16:06.618Z,63.03
2018-07-03T12:18:07.565Z,63.11
2018-07-03T12:19:08.039Z,63.14
2018-07-03T12:20:08.516Z,63.14
2018-07-03T12:21:08.989Z,63.13
2018-07-03T12:22:09.467Z,63.10
2018-07-03T12:23:09.939Z,63.07
2018-07-03T12:24:10.415Z,63.21
2018-07-03T12:25:10.891Z,63.04
2018-07-03T12:26:11.364Z,63.01
2018-07-03T12:27:11.841Z,62.61
2018-07-03T12:28:12.317Z,62.63
2018-07-03T12:29:12.798Z,62.57
2018-07-03T12:30:13.264Z,62.60
2018-07-03T12:31:13.744Z,62.66
2018-07-03T12:32:14.216Z,62.68
2018-07-03T12:33:14.689Z,62.77
2018-07-03T12:34:15.174Z,62.76
2018-07-03T12:35:15.639Z,62.56
2018-07-03T12:36:16.119Z,62.59
2018-07-03T12:37:16.590Z,62.42
2018-07-03T12:38:17.063Z,62.50
2018-07-03T12:39:17.791Z,62.59
2018-07-03T12:40:18.015Z,62.53
2018-07-03T12:41:18.486Z,62.59
2018-07-03T12:42:18.960Z,62.78
2018-07-03T12:43:19.433Z,62.99
2018-07-03T12:44:19.909Z,62.84
2018-07-03T12:45:20.381Z,62.67
2018-07-03T12:46:20.854Z,62.75
2018-07-03T12:47:21.328Z,62.81
2018-07-03T12:48:21.802Z,62.84
2018-07-03T12:49:22.274Z,62.61
2018-07-03T12:50:22.752Z,62.75
2018-07-03T12:51:23.219Z,62.81
2018-07-03T12:52:23.694Z,62.95
2018-07-03T12:53:24.166Z,62.98
2018-07-03T12:54:24.638Z,62.81
2018-07-03T12:55:25.338Z,62.84
2018-07-03T12:56:25.586Z,62.84
2018-07-03T12:57:26.056Z,62.81
2018-07-03T12:58:26.526Z,62.84
2018-07-03T12:59:27.003Z,62.90
2018-07-03T13:00:27.472Z,62.99
2018-07-03T13:01:27.943Z,62.90
2018-07-03T13:02:28.414Z,62.90
2018-07-03T13:03:28.886Z,62.96
2018-07-03T13:04:29.410Z,62.91
2018-07-03T13:05:29.830Z,62.94